createdAt,value
2022-12-18T00:00:43.814Z,80.52
2022-12-18T00:05:50.474Z,80.55
2022-12-18T00:10:52.708Z,80.60
2022-12-18T00:15:56.668Z,80.34
2022-12-18T00:21:03.959Z,80.45
2022-12-18T00:26:08.908Z,80.46
2022-12-18T00:31:13.625Z,80.66
2022-12-18T00:36:24.603Z,80.67
2022-12-18T00:41:47.029Z,80.21
2022-12-18T00:46:49.797Z,80.28
2022-12-18T00:51:52.400Z,80.36
2022-12-18T00:56:56.380Z,80.32
2022-12-18T01:01:58.688Z,80.49
2022-12-18T01:07:01.183Z,80.62
2022-12-18T01:12:03.427Z,80.63
2022-12-18T01:17:06.195Z,80.55
2022-12-18T01:22:09.044Z,80.50
2022-12-18T01:27:11.353Z,80.40
2022-12-18T01:32:13.917Z,80.30
2022-12-18T01:37:17.197Z,80.22
2022-12-18T01:42:19.595Z,80.42
2022-12-18T01:47:43.108Z,80.25
2022-12-18T01:52:53.295Z,80.26
2022-12-18T01:57:57.377Z,80.21
2022-12-18T02:02:59.797Z,80.16
2022-12-18T02:08:13.739Z,80.37
2022-12-18T02:13:28.133Z,80.26
2022-12-18T02:18:57.284Z,80.16
2022-12-18T02:24:24.423Z,80.12
2022-12-18T02:29:43.088Z,79.98
2022-12-18T02:34:45.797Z,79.84
2022-12-18T02:39:52.826Z,79.88
2022-12-18T02:44:56.251Z,80.02
2022-12-18T02:50:31.781Z,79.85
2022-12-18T02:55:38.387Z,79.72
2022-12-18T03:00:55.124Z,79.79
2022-12-18T03:06:06.240Z,79.84
2022-12-18T03:11:12.108Z,79.84
2022-12-18T03:16:25.634Z,79.78
2022-12-18T03:21:33.510Z,79.60
2022-12-18T03:26:36.654Z,79.69
2022-12-18T03:31:41.712Z,79.77
2022-12-18T03:36:44.198Z,79.15
2022-12-18T03:41:50.503Z,79.47
2022-12-18T03:47:24.287Z,79.52
2022-12-18T03:52:38.812Z,79.43
2022-12-18T03:57:43.848Z,79.71
2022-12-18T04:02:51.056Z,79.66
2022-12-18T04:07:58.915Z,79.42
2022-12-18T04:13:01.421Z,79.55
2022-12-18T04:18:05.017Z,79.57
2022-12-18T04:23:14.853Z,79.47
2022-12-18T04:28:17.488Z,79.46
2022-12-18T04:33:20.054Z,79.54
2022-12-18T04:38:22.456Z,79.79
2022-12-18T04:43:34.085Z,79.40
2022-12-18T04:48:38.535Z,79.58
2022-12-18T04:53:41.159Z,79.46
2022-12-18T04:58:45.362Z,79.37
2022-12-18T05:03:47.936Z,79.26
2022-12-18T05:08:50.293Z,79.33
2022-12-18T05:13:52.529Z,79.55
2022-12-18T05:18:54.908Z,79.24
2022-12-18T05:23:57.135Z,79.42
2022-12-18T05:28:59.376Z,79.27
2022-12-18T05:34:01.597Z,78.95
2022-12-18T05:39:04.121Z,79.14
2022-12-18T05:44:06.658Z,79.17
2022-12-18T05:49:08.938Z,79.01
2022-12-18T05:54:11.248Z,78.92
2022-12-18T05:59:13.473Z,79.02
2022-12-18T06:04:15.983Z,78.95
2022-12-18T06:09:18.224Z,78.73
2022-12-18T06:14:20.435Z,78.70
2022-12-18T06:19:22.747Z,78.90
2022-12-18T06:24:24.969Z,78.91
2022-12-18T06:29:27.222Z,79.08
2022-12-18T06:34:32.147Z,78.94
2022-12-18T06:39:34.396Z,79.00
2022-12-18T06:44:37.098Z,79.15
2022-12-18T06:49:39.551Z,78.95
2022-12-18T06:54:41.758Z,79.04
2022-12-18T06:59:44.006Z,79.26
2022-12-18T07:04:46.195Z,78.90
2022-12-18T07:09:50.502Z,78.98
2022-12-18T07:14:52.688Z,78.99
2022-12-18T07:19:54.874Z,78.86
2022-12-18T07:24:57.140Z,78.96
2022-12-18T07:29:59.403Z,78.65
2022-12-18T07:35:01.590Z,78.90
2022-12-18T07:40:06.130Z,79.03
2022-12-18T07:45:08.669Z,78.67
2022-12-18T07:50:11.081Z,78.64
2022-12-18T07:55:13.349Z,78.63
2022-12-18T08:00:16.010Z,78.62
2022-12-18T08:05:18.593Z,78.55
2022-12-18T08:10:21.505Z,78.44
2022-12-18T08:15:23.931Z,78.51
2022-12-18T08:20:28.017Z,78.65
2022-12-18T08:25:30.233Z,78.74
2022-12-18T08:30:32.575Z,78.55
2022-12-18T08:35:44.078Z,78.47
2022-12-18T08:40:48.038Z,78.42
2022-12-18T08:45:50.380Z,78.62
2022-12-18T08:50:59.898Z,78.75
2022-12-18T08:56:02.029Z,78.80
2022-12-18T09:01:06.161Z,78.54
2022-12-18T09:06:08.891Z,78.55
2022-12-18T09:11:16.816Z,78.77
2022-12-18T09:16:19.538Z,78.71
2022-12-18T09:21:22.428Z,78.79
2022-12-18T09:26:25.474Z,78.84
2022-12-18T09:31:27.722Z,78.90
2022-12-18T09:36:29.960Z,78.69
2022-12-18T09:41:56.967Z,78.87
2022-12-18T09:47:20.202Z,78.74
2022-12-18T09:52:57.203Z,78.96
2022-12-18T09:58:06.337Z,78.82
2022-12-18T10:03:14.823Z,78.90
2022-12-18T10:08:26.244Z,78.86
2022-12-18T10:13:43.565Z,78.92
2022-12-18T10:18:45.783Z,78.92
2022-12-18T10:24:03.760Z,78.63
2022-12-18T10:29:12.732Z,78.95
2022-12-18T10:34:16.116Z,78.73
2022-12-18T10:39:24.586Z,78.81
2022-12-18T10:44:29.572Z,78.59
2022-12-18T10:49:33.992Z,78.78
2022-12-18T10:54:36.676Z,78.85
2022-12-18T10:59:55.973Z,78.81
2022-12-18T11:04:58.197Z,78.97
2022-12-18T11:10:04.715Z,78.86
2022-12-18T11:15:07.832Z,78.91
2022-12-18T11:20:27.842Z,79.15
2022-12-18T11:25:32.572Z,78.92
2022-12-18T11:30:37.952Z,79.03
2022-12-18T11:35:53.269Z,79.11
2022-12-18T11:41:05.349Z,78.94
2022-12-18T11:46:17.671Z,79.16
2022-12-18T11:51:31.668Z,79.07
2022-12-18T11:56:38.015Z,79.02
2022-12-18T12:02:18.852Z,79.15
2022-12-18T12:07:59.128Z,79.16
2022-12-18T12:13:04.363Z,79.07
2022-12-18T12:18:15.945Z,79.00
2022-12-18T12:23:27.863Z,78.97
2022-12-18T12:28:36.293Z,79.08
2022-12-18T12:33:54.810Z,79.07
2022-12-18T12:38:59.686Z,79.31
2022-12-18T12:44:05.832Z,79.11
2022-12-18T12:49:16.480Z,79.31
2022-12-18T12:54:25.065Z,79.31
2022-12-18T12:59:52.584Z,79.32
2022-12-18T13:05:01.798Z,79.12
2022-12-18T13:10:19.178Z,79.20
2022-12-18T13:15:44.489Z,79.35
2022-12-18T13:21:04.121Z,79.19
2022-12-18T13:26:12.167Z,79.31
2022-12-18T13:31:16.252Z,79.18
2022-12-18T13:36:27.359Z,79.21
2022-12-18T13:41:30.438Z,78.99
2022-12-18T13:46:32.717Z,78.97
2022-12-18T13:51:37.600Z,79.08
2022-12-18T13:56:45.306Z,78.75
2022-12-18T14:01:54.815Z,78.82
2022-12-18T14:07:15.126Z,78.61
2022-12-18T14:12:46.697Z,78.39
2022-12-18T14:17:52.456Z,78.43
2022-12-18T14:22:55.792Z,78.37
2022-12-18T14:28:16.697Z,78.39
2022-12-18T14:33:25.757Z,78.33
2022-12-18T14:38:36.125Z,78.28
2022-12-18T14:43:41.598Z,78.28
2022-12-18T14:48:44.670Z,78.07
2022-12-18T14:53:55.817Z,78.15
2022-12-18T14:59:04.625Z,78.14
2022-12-18T15:04:26.647Z,77.85
2022-12-18T15:09:29.063Z,78.12
2022-12-18T15:14:33.015Z,77.93
2022-12-18T15:19:40.597Z,77.81
2022-12-18T15:24:44.110Z,78.04
2022-12-18T15:30:17.406Z,77.20
2022-12-18T15:35:21.656Z,77.29
2022-12-18T15:40:25.480Z,77.14
2022-12-18T15:45:28.075Z,77.13
2022-12-18T15:50:30.475Z,76.74
2022-12-18T15:55:54.235Z,76.41
2022-12-18T16:01:00.159Z,76.30
2022-12-18T16:06:04.165Z,76.04
2022-12-18T16:11:07.210Z,75.96
2022-12-18T16:16:09.999Z,75.83
2022-12-18T16:21:12.495Z,75.60
2022-12-18T16:26:14.810Z,75.49
2022-12-18T16:31:17.169Z,75.83
2022-12-18T16:36:19.496Z,75.62
2022-12-18T16:41:34.061Z,75.54
2022-12-18T16:46:39.442Z,75.56
2022-12-18T16:51:42.485Z,75.58
2022-12-18T16:56:45.565Z,75.49
2022-12-18T17:01:48.585Z,75.28
2022-12-18T17:06:54.282Z,75.20
2022-12-18T17:12:04.035Z,75.08
2022-12-18T17:17:20.824Z,75.20
2022-12-18T17:22:24.041Z,74.86
2022-12-18T17:27:26.352Z,74.76
2022-12-18T17:32:32.336Z,74.61
2022-12-18T17:37:34.634Z,74.49
2022-12-18T17:42:37.231Z,74.13
2022-12-18T17:47:41.992Z,74.35
2022-12-18T17:52:44.673Z,74.03
2022-12-18T17:57:47.007Z,74.06
2022-12-18T18:02:49.548Z,74.02
2022-12-18T18:07:52.218Z,73.84
2022-12-18T18:13:18.141Z,73.57
2022-12-18T18:18:22.864Z,73.52
2022-12-18T18:23:29.055Z,73.33
2022-12-18T18:28:31.394Z,73.41
2022-12-18T18:33:34.244Z,73.38
2022-12-18T18:38:43.056Z,73.39
2022-12-18T18:43:50.041Z,73.34
2022-12-18T18:48:52.563Z,73.33
2022-12-18T18:53:56.168Z,73.56
2022-12-18T18:58:58.838Z,73.50
2022-12-18T19:04:04.271Z,73.54
2022-12-18T19:09:06.956Z,73.37
2022-12-18T19:14:11.430Z,73.21
2022-12-18T19:19:14.363Z,73.38
2022-12-18T19:24:16.913Z,73.13
2022-12-18T19:29:19.211Z,73.37
2022-12-18T19:34:21.711Z,73.41
2022-12-18T19:39:24.112Z,73.38
2022-12-18T19:44:27.759Z,73.52
2022-12-18T19:49:30.950Z,73.57
2022-12-18T19:54:33.219Z,73.33
2022-12-18T19:59:36.144Z,73.27
2022-12-18T20:04:39.585Z,73.36
2022-12-18T20:09:41.916Z,73.47
2022-12-18T20:14:44.732Z,73.42
2022-12-18T20:19:49.617Z,73.35
2022-12-18T20:24:51.948Z,73.28
2022-12-18T20:29:54.189Z,73.21
2022-12-18T20:34:58.872Z,73.24
2022-12-18T20:40:01.121Z,73.43
2022-12-18T20:45:06.513Z,73.08
2022-12-18T20:50:09.004Z,73.02
2022-12-18T20:55:11.294Z,73.16
2022-12-18T21:00:14.094Z,73.27
2022-12-18T21:05:21.219Z,73.51
2022-12-18T21:10:23.442Z,73.37
2022-12-18T21:15:28.796Z,73.55
2022-12-18T21:20:31.335Z,73.29
2022-12-18T21:25:33.746Z,73.27
2022-12-18T21:30:36.020Z,73.46
2022-12-18T21:35:38.288Z,73.29
2022-12-18T21:40:43.292Z,73.50
2022-12-18T21:45:45.681Z,73.61
2022-12-18T21:50:47.929Z,73.93
2022-12-18T21:56:00.574Z,73.55
2022-12-18T22:01:03.129Z,73.69
2022-12-18T22:06:09.435Z,73.85
2022-12-18T22:11:12.928Z,73.95
2022-12-18T22:16:27.621Z,73.81
2022-12-18T22:21:32.211Z,74.00
2022-12-18T22:26:39.881Z,74.05
2022-12-18T22:31:42.854Z,73.96
2022-12-18T22:36:47.245Z,74.08
2022-12-18T22:41:49.995Z,74.15
2022-12-18T22:47:00.802Z,74.06
2022-12-18T22:52:09.789Z,74.45
2022-12-18T22:57:12.161Z,74.37
2022-12-18T23:02:14.590Z,74.52
2022-12-18T23:07:17.436Z,74.53
2022-12-18T23:12:19.895Z,74.81
2022-12-18T23:17:22.215Z,74.60
2022-12-18T23:22:24.562Z,74.76
2022-12-18T23:27:26.858Z,74.75
2022-12-18T23:32:29.041Z,74.96
2022-12-18T23:37:57.634Z,74.87
2022-12-18T23:42:53.420Z,74.99
2022-12-18T23:47:55.649Z,74.95
2022-12-18T23:53:03.248Z,75.12
2022-12-18T23:58:09.310Z,75.14
